sensor_id;sensor_type;location;lat;lon;timestamp;P1;durP1;ratioP1;P2;durP2;ratioP2
63203;SDS011;49297;43.210;27.914;2023-02-15T00:01:43;11.63;;;10.60;;
63203;SDS011;49297;43.210;27.914;2023-02-15T00:04:09;11.30;;;10.23;;
63203;SDS011;49297;43.210;27.914;2023-02-15T00:06:37;11.40;;;8.88;;
63203;SDS011;49297;43.210;27.914;2023-02-15T00:09:03;8.90;;;8.00;;
63203;SDS011;49297;43.210;27.914;2023-02-15T00:11:29;12.10;;;8.32;;
63203;SDS011;49297;43.210;27.914;2023-02-15T00:14:41;9.27;;;8.20;;
63203;SDS011;49297;43.210;27.914;2023-02-15T00:17:00;12.07;;;8.70;;
63203;SDS011;49297;43.210;27.914;2023-02-15T00:19:26;10.00;;;9.00;;
63203;SDS011;49297;43.210;27.914;2023-02-15T00:21:52;11.13;;;8.95;;
63203;SDS011;49297;43.210;27.914;2023-02-15T00:24:18;9.20;;;8.30;;
63203;SDS011;49297;43.210;27.914;2023-02-15T00:26:45;9.23;;;8.32;;
63203;SDS011;49297;43.210;27.914;2023-02-15T00:29:12;13.15;;;8.98;;
63203;SDS011;49297;43.210;27.914;2023-02-15T00:31:39;12.18;;;9.30;;
63203;SDS011;49297;43.210;27.914;2023-02-15T00:34:05;13.70;;;9.65;;
63203;SDS011;49297;43.210;27.914;2023-02-15T00:36:35;19.35;;;8.25;;
63203;SDS011;49297;43.210;27.914;2023-02-15T00:39:01;12.93;;;8.77;;
63203;SDS011;49297;43.210;27.914;2023-02-15T00:41:30;9.88;;;8.35;;
63203;SDS011;49297;43.210;27.914;2023-02-15T00:43:56;9.20;;;7.65;;
63203;SDS011;49297;43.210;27.914;2023-02-15T00:46:22;10.35;;;8.65;;
63203;SDS011;49297;43.210;27.914;2023-02-15T00:48:48;9.88;;;8.85;;
63203;SDS011;49297;43.210;27.914;2023-02-15T00:51:14;11.13;;;9.98;;
63203;SDS011;49297;43.210;27.914;2023-02-15T00:53:40;10.68;;;7.68;;
63203;SDS011;49297;43.210;27.914;2023-02-15T00:56:07;11.77;;;9.18;;
63203;SDS011;49297;43.210;27.914;2023-02-15T00:58:33;9.90;;;8.82;;
63203;SDS011;49297;43.210;27.914;2023-02-15T01:01:06;10.27;;;8.68;;
63203;SDS011;49297;43.210;27.914;2023-02-15T01:03:34;10.07;;;9.07;;
63203;SDS011;49297;43.210;27.914;2023-02-15T01:06:00;9.25;;;7.68;;
63203;SDS011;49297;43.210;27.914;2023-02-15T01:08:26;9.23;;;7.93;;
63203;SDS011;49297;43.210;27.914;2023-02-15T01:10:52;16.20;;;8.63;;
63203;SDS011;49297;43.210;27.914;2023-02-15T01:13:18;8.85;;;7.95;;
63203;SDS011;49297;43.210;27.914;2023-02-15T01:15:44;11.27;;;10.15;;
63203;SDS011;49297;43.210;27.914;2023-02-15T01:18:10;10.68;;;8.90;;
63203;SDS011;49297;43.210;27.914;2023-02-15T01:20:38;10.75;;;9.15;;
63203;SDS011;49297;43.210;27.914;2023-02-15T01:23:06;11.93;;;9.32;;
63203;SDS011;49297;43.210;27.914;2023-02-15T01:25:34;10.60;;;9.13;;
63203;SDS011;49297;43.210;27.914;2023-02-15T01:28:01;11.38;;;8.30;;
63203;SDS011;49297;43.210;27.914;2023-02-15T01:30:27;11.05;;;8.80;;
63203;SDS011;49297;43.210;27.914;2023-02-15T01:32:53;9.10;;;8.30;;
63203;SDS011;49297;43.210;27.914;2023-02-15T01:35:19;11.68;;;9.13;;
63203;SDS011;49297;43.210;27.914;2023-02-15T01:37:45;9.73;;;8.82;;
63203;SDS011;49297;43.210;27.914;2023-02-15T01:40:14;11.38;;;9.57;;
63203;SDS011;49297;43.210;27.914;2023-02-15T01:42:43;9.27;;;8.15;;
63203;SDS011;49297;43.210;27.914;2023-02-15T01:45:19;11.50;;;10.30;;
63203;SDS011;49297;43.210;27.914;2023-02-15T01:47:49;11.60;;;8.98;;
63203;SDS011;49297;43.210;27.914;2023-02-15T01:50:37;10.38;;;8.57;;
63203;SDS011;49297;43.210;27.914;2023-02-15T01:53:16;11.52;;;8.68;;
63203;SDS011;49297;43.210;27.914;2023-02-15T01:55:53;11.32;;;9.68;;
63203;SDS011;49297;43.210;27.914;2023-02-15T01:58:24;11.27;;;9.02;;
63203;SDS011;49297;43.210;27.914;2023-02-15T02:00:52;15.63;;;10.25;;
63203;SDS011;49297;43.210;27.914;2023-02-15T02:03:21;10.40;;;8.98;;
63203;SDS011;49297;43.210;27.914;2023-02-15T02:06:01;15.50;;;9.38;;
63203;SDS011;49297;43.210;27.914;2023-02-15T02:08:27;9.82;;;8.82;;
63203;SDS011;49297;43.210;27.914;2023-02-15T02:10:53;10.75;;;8.75;;
63203;SDS011;49297;43.210;27.914;2023-02-15T02:13:19;10.52;;;9.43;;
63203;SDS011;49297;43.210;27.914;2023-02-15T02:16:46;11.52;;;9.23;;
63203;SDS011;49297;43.210;27.914;2023-02-15T02:18:44;9.68;;;8.68;;
63203;SDS011;49297;43.210;27.914;2023-02-15T02:27:06;11.32;;;9.90;;
63203;SDS011;49297;43.210;27.914;2023-02-15T02:40:49;16.08;;;14.35;;
63203;SDS011;49297;43.210;27.914;2023-02-15T02:43:28;15.38;;;13.35;;
63203;SDS011;49297;43.210;27.914;2023-02-15T02:46:03;12.15;;;10.88;;
63203;SDS011;49297;43.210;27.914;2023-02-15T02:48:35;10.77;;;9.60;;
63203;SDS011;49297;43.210;27.914;2023-02-15T02:51:02;11.55;;;9.75;;
63203;SDS011;49297;43.210;27.914;2023-02-15T02:53:29;10.50;;;8.60;;
63203;SDS011;49297;43.210;27.914;2023-02-15T02:56:05;11.98;;;10.43;;
63203;SDS011;49297;43.210;27.914;2023-02-15T02:58:39;11.43;;;9.88;;
63203;SDS011;49297;43.210;27.914;2023-02-15T03:01:16;12.25;;;10.32;;
63203;SDS011;49297;43.210;27.914;2023-02-15T03:03:50;12.30;;;9.65;;
63203;SDS011;49297;43.210;27.914;2023-02-15T03:06:29;11.63;;;10.00;;
63203;SDS011;49297;43.210;27.914;2023-02-15T03:09:12;10.82;;;9.73;;
63203;SDS011;49297;43.210;27.914;2023-02-15T03:11:43;10.45;;;9.40;;
63203;SDS011;49297;43.210;27.914;2023-02-15T03:14:10;12.65;;;11.40;;
63203;SDS011;49297;43.210;27.914;2023-02-15T03:16:39;12.88;;;10.70;;
63203;SDS011;49297;43.210;27.914;2023-02-15T03:19:17;11.98;;;9.05;;
63203;SDS011;49297;43.210;27.914;2023-02-15T03:21:48;12.55;;;11.13;;
63203;SDS011;49297;43.210;27.914;2023-02-15T03:24:46;13.60;;;11.60;;
63203;SDS011;49297;43.210;27.914;2023-02-15T03:27:22;15.98;;;10.68;;
63203;SDS011;49297;43.210;27.914;2023-02-15T03:29:54;13.95;;;10.00;;
63203;SDS011;49297;43.210;27.914;2023-02-15T03:32:23;9.70;;;7.95;;
63203;SDS011;49297;43.210;27.914;2023-02-15T03:34:51;16.45;;;9.07;;
63203;SDS011;49297;43.210;27.914;2023-02-15T03:37:22;10.60;;;8.25;;
63203;SDS011;49297;43.210;27.914;2023-02-15T03:40:07;15.35;;;7.38;;
63203;SDS011;49297;43.210;27.914;2023-02-15T03:46:20;12.30;;;7.88;;
63203;SDS011;49297;43.210;27.914;2023-02-15T03:48:54;11.43;;;7.47;;
63203;SDS011;49297;43.210;27.914;2023-02-15T03:51:25;9.88;;;7.85;;
63203;SDS011;49297;43.210;27.914;2023-02-15T03:54:02;12.20;;;8.52;;
63203;SDS011;49297;43.210;27.914;2023-02-15T03:56:33;8.48;;;7.57;;
63203;SDS011;49297;43.210;27.914;2023-02-15T03:59:01;9.13;;;7.95;;
63203;SDS011;49297;43.210;27.914;2023-02-15T04:02:18;9.32;;;7.50;;
63203;SDS011;49297;43.210;27.914;2023-02-15T04:04:48;8.98;;;7.90;;
63203;SDS011;49297;43.210;27.914;2023-02-15T04:07:14;9.10;;;7.85;;
63203;SDS011;49297;43.210;27.914;2023-02-15T04:09:40;12.30;;;8.02;;
63203;SDS011;49297;43.210;27.914;2023-02-15T04:12:24;12.98;;;9.20;;
63203;SDS011;49297;43.210;27.914;2023-02-15T04:14:50;11.73;;;10.50;;
63203;SDS011;49297;43.210;27.914;2023-02-15T04:17:35;16.17;;;9.23;;
63203;SDS011;49297;43.210;27.914;2023-02-15T04:20:02;10.65;;;9.27;;
63203;SDS011;49297;43.210;27.914;2023-02-15T04:22:47;11.02;;;9.85;;
63203;SDS011;49297;43.210;27.914;2023-02-15T04:25:31;12.35;;;11.15;;
63203;SDS011;49297;43.210;27.914;2023-02-15T04:27:57;10.27;;;8.57;;
63203;SDS011;49297;43.210;27.914;2023-02-15T04:30:24;10.43;;;9.35;;
63203;SDS011;49297;43.210;27.914;2023-02-15T04:32:50;17.38;;;8.80;;
63203;SDS011;49297;43.210;27.914;2023-02-15T04:35:16;9.07;;;8.18;;
63203;SDS011;49297;43.210;27.914;2023-02-15T04:37:43;8.70;;;7.78;;
63203;SDS011;49297;43.210;27.914;2023-02-15T04:40:10;14.70;;;9.70;;
63203;SDS011;49297;43.210;27.914;2023-02-15T04:42:37;10.38;;;9.30;;
63203;SDS011;49297;43.210;27.914;2023-02-15T04:45:04;9.40;;;8.23;;
63203;SDS011;49297;43.210;27.914;2023-02-15T04:47:30;22.20;;;11.75;;
63203;SDS011;49297;43.210;27.914;2023-02-15T04:49:56;11.75;;;9.18;;
63203;SDS011;49297;43.210;27.914;2023-02-15T04:52:21;12.95;;;10.00;;
63203;SDS011;49297;43.210;27.914;2023-02-15T04:54:47;10.07;;;8.75;;
63203;SDS011;49297;43.210;27.914;2023-02-15T04:57:13;11.80;;;10.68;;
63203;SDS011;49297;43.210;27.914;2023-02-15T04:59:40;13.57;;;10.93;;
63203;SDS011;49297;43.210;27.914;2023-02-15T05:02:05;16.55;;;12.70;;
63203;SDS011;49297;43.210;27.914;2023-02-15T05:04:32;13.63;;;9.60;;
63203;SDS011;49297;43.210;27.914;2023-02-15T05:06:58;11.02;;;8.90;;
63203;SDS011;49297;43.210;27.914;2023-02-15T05:09:23;15.43;;;10.63;;
63203;SDS011;49297;43.210;27.914;2023-02-15T05:11:49;11.55;;;9.57;;
63203;SDS011;49297;43.210;27.914;2023-02-15T05:14:15;11.63;;;10.50;;
63203;SDS011;49297;43.210;27.914;2023-02-15T05:16:41;14.05;;;9.07;;
63203;SDS011;49297;43.210;27.914;2023-02-15T05:19:07;12.18;;;9.48;;
63203;SDS011;49297;43.210;27.914;2023-02-15T05:21:32;14.00;;;10.40;;
63203;SDS011;49297;43.210;27.914;2023-02-15T05:23:58;10.35;;;7.85;;
63203;SDS011;49297;43.210;27.914;2023-02-15T05:26:24;15.93;;;10.55;;
63203;SDS011;49297;43.210;27.914;2023-02-15T05:29:09;13.57;;;10.15;;
63203;SDS011;49297;43.210;27.914;2023-02-15T05:31:35;12.45;;;8.68;;
63203;SDS011;49297;43.210;27.914;2023-02-15T05:34:02;10.15;;;9.07;;
63203;SDS011;49297;43.210;27.914;2023-02-15T05:36:28;11.73;;;10.40;;
63203;SDS011;49297;43.210;27.914;2023-02-15T05:38:54;9.75;;;8.50;;
63203;SDS011;49297;43.210;27.914;2023-02-15T05:41:20;13.82;;;9.93;;
63203;SDS011;49297;43.210;27.914;2023-02-15T05:43:46;12.32;;;8.98;;
63203;SDS011;49297;43.210;27.914;2023-02-15T05:46:12;9.85;;;8.93;;
63203;SDS011;49297;43.210;27.914;2023-02-15T05:48:38;11.32;;;9.25;;
63203;SDS011;49297;43.210;27.914;2023-02-15T05:51:05;11.95;;;9.95;;
63203;SDS011;49297;43.210;27.914;2023-02-15T05:53:42;10.30;;;8.75;;
63203;SDS011;49297;43.210;27.914;2023-02-15T05:56:08;9.75;;;8.75;;
63203;SDS011;49297;43.210;27.914;2023-02-15T05:58:36;15.50;;;8.80;;
63203;SDS011;49297;43.210;27.914;2023-02-15T06:01:10;10.27;;;9.27;;
63203;SDS011;49297;43.210;27.914;2023-02-15T06:03:37;9.20;;;7.53;;
63203;SDS011;49297;43.210;27.914;2023-02-15T06:06:03;9.82;;;8.27;;
63203;SDS011;49297;43.210;27.914;2023-02-15T06:08:30;10.98;;;8.70;;
63203;SDS011;49297;43.210;27.914;2023-02-15T06:10:57;12.18;;;9.52;;
63203;SDS011;49297;43.210;27.914;2023-02-15T06:13:26;12.45;;;8.25;;
63203;SDS011;49297;43.210;27.914;2023-02-15T06:15:53;13.00;;;10.27;;
63203;SDS011;49297;43.210;27.914;2023-02-15T06:18:19;13.85;;;9.93;;
63203;SDS011;49297;43.210;27.914;2023-02-15T06:20:45;14.20;;;10.52;;
63203;SDS011;49297;43.210;27.914;2023-02-15T06:23:11;17.27;;;10.02;;
63203;SDS011;49297;43.210;27.914;2023-02-15T06:25:37;12.63;;;8.23;;
63203;SDS011;49297;43.210;27.914;2023-02-15T06:28:03;13.48;;;10.93;;
63203;SDS011;49297;43.210;27.914;2023-02-15T06:30:29;13.48;;;8.73;;
63203;SDS011;49297;43.210;27.914;2023-02-15T06:32:54;13.88;;;9.38;;
63203;SDS011;49297;43.210;27.914;2023-02-15T06:35:20;14.13;;;10.40;;
63203;SDS011;49297;43.210;27.914;2023-02-15T06:37:47;16.98;;;10.15;;
63203;SDS011;49297;43.210;27.914;2023-02-15T06:40:13;9.98;;;8.20;;
63203;SDS011;49297;43.210;27.914;2023-02-15T06:42:39;10.75;;;9.15;;
63203;SDS011;49297;43.210;27.914;2023-02-15T06:45:06;15.35;;;9.38;;
63203;SDS011;49297;43.210;27.914;2023-02-15T06:47:33;14.15;;;9.25;;
63203;SDS011;49297;43.210;27.914;2023-02-15T06:49:58;12.60;;;10.07;;
63203;SDS011;49297;43.210;27.914;2023-02-15T06:52:24;44.67;;;12.77;;
63203;SDS011;49297;43.210;27.914;2023-02-15T06:54:53;13.63;;;9.85;;
63203;SDS011;49297;43.210;27.914;2023-02-15T06:57:19;20.65;;;11.10;;
63203;SDS011;49297;43.210;27.914;2023-02-15T06:59:45;9.85;;;8.23;;
63203;SDS011;49297;43.210;27.914;2023-02-15T07:02:11;11.57;;;8.27;;
63203;SDS011;49297;43.210;27.914;2023-02-15T07:04:38;14.82;;;8.57;;
63203;SDS011;49297;43.210;27.914;2023-02-15T07:07:04;9.60;;;8.43;;
63203;SDS011;49297;43.210;27.914;2023-02-15T07:09:33;10.93;;;7.30;;
63203;SDS011;49297;43.210;27.914;2023-02-15T07:11:58;9.10;;;7.88;;
63203;SDS011;49297;43.210;27.914;2023-02-15T07:14:43;10.35;;;7.10;;
63203;SDS011;49297;43.210;27.914;2023-02-15T07:17:08;12.05;;;8.75;;
63203;SDS011;49297;43.210;27.914;2023-02-15T07:19:34;8.30;;;6.60;;
63203;SDS011;49297;43.210;27.914;2023-02-15T07:22:00;12.20;;;9.38;;
63203;SDS011;49297;43.210;27.914;2023-02-15T07:24:26;9.52;;;7.45;;
63203;SDS011;49297;43.210;27.914;2023-02-15T07:26:52;9.77;;;7.20;;
63203;SDS011;49297;43.210;27.914;2023-02-15T07:29:18;9.63;;;7.90;;
63203;SDS011;49297;43.210;27.914;2023-02-15T07:31:43;9.52;;;8.00;;
63203;SDS011;49297;43.210;27.914;2023-02-15T07:34:10;18.05;;;10.05;;
63203;SDS011;49297;43.210;27.914;2023-02-15T07:36:36;13.18;;;8.73;;
63203;SDS011;49297;43.210;27.914;2023-02-15T07:39:02;9.27;;;7.35;;
63203;SDS011;49297;43.210;27.914;2023-02-15T07:41:28;10.30;;;8.38;;
63203;SDS011;49297;43.210;27.914;2023-02-15T07:43:54;10.30;;;7.57;;
63203;SDS011;49297;43.210;27.914;2023-02-15T07:46:20;12.00;;;9.30;;
63203;SDS011;49297;43.210;27.914;2023-02-15T07:48:46;13.63;;;10.48;;
63203;SDS011;49297;43.210;27.914;2023-02-15T07:51:13;16.85;;;9.25;;
63203;SDS011;49297;43.210;27.914;2023-02-15T07:53:39;7.93;;;7.15;;
63203;SDS011;49297;43.210;27.914;2023-02-15T07:56:07;9.52;;;8.48;;
63203;SDS011;49297;43.210;27.914;2023-02-15T07:58:35;11.85;;;9.48;;
63203;SDS011;49297;43.210;27.914;2023-02-15T08:01:17;16.48;;;9.52;;
63203;SDS011;49297;43.210;27.914;2023-02-15T08:03:48;14.85;;;9.40;;
63203;SDS011;49297;43.210;27.914;2023-02-15T08:06:14;14.18;;;12.73;;
63203;SDS011;49297;43.210;27.914;2023-02-15T08:08:40;12.18;;;9.57;;
63203;SDS011;49297;43.210;27.914;2023-02-15T08:11:13;13.15;;;9.10;;
63203;SDS011;49297;43.210;27.914;2023-02-15T08:16:37;9.82;;;7.10;;
63203;SDS011;49297;43.210;27.914;2023-02-15T08:21:52;11.20;;;7.40;;
63203;SDS011;49297;43.210;27.914;2023-02-15T08:24:37;11.35;;;7.78;;
63203;SDS011;49297;43.210;27.914;2023-02-15T08:27:04;13.85;;;10.52;;
63203;SDS011;49297;43.210;27.914;2023-02-15T08:29:31;9.95;;;9.00;;
63203;SDS011;49297;43.210;27.914;2023-02-15T08:31:58;11.70;;;9.60;;
63203;SDS011;49297;43.210;27.914;2023-02-15T08:34:27;10.40;;;7.97;;
63203;SDS011;49297;43.210;27.914;2023-02-15T08:36:55;11.57;;;10.35;;
63203;SDS011;49297;43.210;27.914;2023-02-15T08:39:21;8.90;;;7.28;;
63203;SDS011;49297;43.210;27.914;2023-02-15T08:41:48;12.70;;;10.10;;
63203;SDS011;49297;43.210;27.914;2023-02-15T08:44:14;9.88;;;7.10;;
63203;SDS011;49297;43.210;27.914;2023-02-15T08:46:42;11.65;;;10.30;;
63203;SDS011;49297;43.210;27.914;2023-02-15T08:49:11;10.77;;;7.40;;
63203;SDS011;49297;43.210;27.914;2023-02-15T08:51:38;11.60;;;9.63;;
63203;SDS011;49297;43.210;27.914;2023-02-15T08:54:06;15.68;;;10.05;;
63203;SDS011;49297;43.210;27.914;2023-02-15T08:56:35;7.82;;;6.95;;
63203;SDS011;49297;43.210;27.914;2023-02-15T08:59:03;14.05;;;10.70;;
63203;SDS011;49297;43.210;27.914;2023-02-15T09:01:30;9.88;;;7.20;;
63203;SDS011;49297;43.210;27.914;2023-02-15T09:03:58;9.18;;;6.75;;
63203;SDS011;49297;43.210;27.914;2023-02-15T09:06:26;8.75;;;7.78;;
63203;SDS011;49297;43.210;27.914;2023-02-15T09:08:52;10.63;;;9.73;;
63203;SDS011;49297;43.210;27.914;2023-02-15T09:11:20;10.52;;;7.47;;
63203;SDS011;49297;43.210;27.914;2023-02-15T09:14:01;12.20;;;8.63;;
63203;SDS011;49297;43.210;27.914;2023-02-15T09:16:31;12.57;;;8.48;;
63203;SDS011;49297;43.210;27.914;2023-02-15T09:18:58;10.68;;;8.98;;
63203;SDS011;49297;43.210;27.914;2023-02-15T09:21:27;10.60;;;6.72;;
63203;SDS011;49297;43.210;27.914;2023-02-15T09:23:57;10.90;;;9.23;;
63203;SDS011;49297;43.210;27.914;2023-02-15T09:26:25;24.77;;;10.27;;
63203;SDS011;49297;43.210;27.914;2023-02-15T09:28:52;11.57;;;10.10;;
63203;SDS011;49297;43.210;27.914;2023-02-15T09:31:23;11.40;;;8.25;;
63203;SDS011;49297;43.210;27.914;2023-02-15T09:33:52;13.23;;;7.00;;
63203;SDS011;49297;43.210;27.914;2023-02-15T09:38:54;11.70;;;7.40;;
63203;SDS011;49297;43.210;27.914;2023-02-15T09:41:34;7.07;;;6.13;;
63203;SDS011;49297;43.210;27.914;2023-02-15T10:29:00;14.93;;;11.38;;
63203;SDS011;49297;43.210;27.914;2023-02-15T10:50:26;12.75;;;9.63;;
63203;SDS011;49297;43.210;27.914;2023-02-15T10:54:07;16.95;;;11.73;;
63203;SDS011;49297;43.210;27.914;2023-02-15T10:56:07;12.75;;;11.13;;
63203;SDS011;49297;43.210;27.914;2023-02-15T11:04:39;13.10;;;11.90;;
63203;SDS011;49297;43.210;27.914;2023-02-15T11:10:38;15.07;;;13.18;;
63203;SDS011;49297;43.210;27.914;2023-02-15T11:12:56;17.30;;;8.85;;
63203;SDS011;49297;43.210;27.914;2023-02-15T11:15:31;13.68;;;12.20;;
63203;SDS011;49297;43.210;27.914;2023-02-15T11:18:11;13.75;;;9.57;;
63203;SDS011;49297;43.210;27.914;2023-02-15T11:21:04;11.40;;;10.00;;
63203;SDS011;49297;43.210;27.914;2023-02-15T11:23:39;17.52;;;12.68;;
63203;SDS011;49297;43.210;27.914;2023-02-15T11:26:54;15.75;;;10.23;;
63203;SDS011;49297;43.210;27.914;2023-02-15T11:29:48;17.35;;;10.48;;
63203;SDS011;49297;43.210;27.914;2023-02-15T11:31:57;11.93;;;8.40;;
63203;SDS011;49297;43.210;27.914;2023-02-15T11:37:07;8.80;;;7.82;;
63203;SDS011;49297;43.210;27.914;2023-02-15T11:39:37;14.50;;;9.57;;
63203;SDS011;49297;43.210;27.914;2023-02-15T11:42:09;11.52;;;10.35;;
63203;SDS011;49297;43.210;27.914;2023-02-15T11:44:52;15.10;;;13.52;;
63203;SDS011;49297;43.210;27.914;2023-02-15T11:47:22;16.35;;;9.60;;
63203;SDS011;49297;43.210;27.914;2023-02-15T11:49:48;15.52;;;14.02;;
63203;SDS011;49297;43.210;27.914;2023-02-15T11:52:14;12.60;;;10.48;;
63203;SDS011;49297;43.210;27.914;2023-02-15T11:54:47;19.45;;;13.48;;
63203;SDS011;49297;43.210;27.914;2023-02-15T12:03:09;13.05;;;8.93;;
63203;SDS011;49297;43.210;27.914;2023-02-15T12:05:45;12.55;;;11.43;;
63203;SDS011;49297;43.210;27.914;2023-02-15T12:08:16;14.77;;;9.20;;
63203;SDS011;49297;43.210;27.914;2023-02-15T12:15:47;9.95;;;8.48;;
63203;SDS011;49297;43.210;27.914;2023-02-15T12:18:26;13.93;;;12.20;;
63203;SDS011;49297;43.210;27.914;2023-02-15T12:21:01;13.68;;;12.07;;
63203;SDS011;49297;43.210;27.914;2023-02-15T12:23:32;11.93;;;10.82;;
63203;SDS011;49297;43.210;27.914;2023-02-15T12:26:00;17.63;;;12.45;;
63203;SDS011;49297;43.210;27.914;2023-02-15T12:28:36;12.52;;;11.38;;
63203;SDS011;49297;43.210;27.914;2023-02-15T12:36:48;15.60;;;13.07;;
63203;SDS011;49297;43.210;27.914;2023-02-15T12:41:57;14.45;;;13.00;;
63203;SDS011;49297;43.210;27.914;2023-02-15T12:44:27;19.77;;;13.10;;
63203;SDS011;49297;43.210;27.914;2023-02-15T12:49:26;14.10;;;12.73;;
63203;SDS011;49297;43.210;27.914;2023-02-15T12:51:55;14.80;;;12.50;;
63203;SDS011;49297;43.210;27.914;2023-02-15T13:02:42;13.32;;;12.13;;
63203;SDS011;49297;43.210;27.914;2023-02-15T13:08:20;14.55;;;13.15;;
63203;SDS011;49297;43.210;27.914;2023-02-15T13:11:01;14.38;;;13.10;;
63203;SDS011;49297;43.210;27.914;2023-02-15T13:13:32;17.10;;;14.10;;
63203;SDS011;49297;43.210;27.914;2023-02-15T13:16:01;16.30;;;14.90;;
63203;SDS011;49297;43.210;27.914;2023-02-15T13:18:35;18.08;;;15.20;;
63203;SDS011;49297;43.210;27.914;2023-02-15T13:21:06;12.55;;;11.32;;
63203;SDS011;49297;43.210;27.914;2023-02-15T13:23:37;15.48;;;14.02;;
63203;SDS011;49297;43.210;27.914;2023-02-15T13:26:11;13.27;;;11.80;;
63203;SDS011;49297;43.210;27.914;2023-02-15T13:28:44;15.82;;;14.32;;
63203;SDS011;49297;43.210;27.914;2023-02-15T13:31:18;13.43;;;11.23;;
63203;SDS011;49297;43.210;27.914;2023-02-15T13:33:50;17.02;;;15.30;;
63203;SDS011;49297;43.210;27.914;2023-02-15T13:42:01;24.33;;;15.77;;
63203;SDS011;49297;43.210;27.914;2023-02-15T13:45:02;13.02;;;11.27;;
63203;SDS011;49297;43.210;27.914;2023-02-15T13:50:53;14.73;;;10.73;;
63203;SDS011;49297;43.210;27.914;2023-02-15T13:56:33;12.13;;;10.93;;
63203;SDS011;49297;43.210;27.914;2023-02-15T14:07:33;11.85;;;10.40;;
63203;SDS011;49297;43.210;27.914;2023-02-15T14:28:22;16.50;;;12.52;;
63203;SDS011;49297;43.210;27.914;2023-02-15T14:30:32;13.68;;;12.27;;
63203;SDS011;49297;43.210;27.914;2023-02-15T14:35:47;12.52;;;11.25;;
63203;SDS011;49297;43.210;27.914;2023-02-15T14:38:16;11.35;;;10.35;;
63203;SDS011;49297;43.210;27.914;2023-02-15T14:40:54;13.07;;;11.90;;
63203;SDS011;49297;43.210;27.914;2023-02-15T14:43:30;12.93;;;11.55;;
63203;SDS011;49297;43.210;27.914;2023-02-15T14:46:26;14.07;;;12.60;;
63203;SDS011;49297;43.210;27.914;2023-02-15T14:56:46;13.35;;;10.40;;
63203;SDS011;49297;43.210;27.914;2023-02-15T15:02:07;9.02;;;7.80;;
63203;SDS011;49297;43.210;27.914;2023-02-15T15:12:50;13.85;;;11.02;;
63203;SDS011;49297;43.210;27.914;2023-02-15T15:22:59;15.30;;;10.98;;
63203;SDS011;49297;43.210;27.914;2023-02-15T15:25:40;14.02;;;10.88;;
63203;SDS011;49297;43.210;27.914;2023-02-15T15:31:03;12.27;;;10.35;;
63203;SDS011;49297;43.210;27.914;2023-02-15T15:47:32;14.95;;;12.70;;
63203;SDS011;49297;43.210;27.914;2023-02-15T15:50:01;21.38;;;13.63;;
63203;SDS011;49297;43.210;27.914;2023-02-15T15:52:37;20.13;;;13.35;;
63203;SDS011;49297;43.210;27.914;2023-02-15T15:55:05;14.45;;;11.45;;
63203;SDS011;49297;43.210;27.914;2023-02-15T15:57:50;19.25;;;13.85;;
63203;SDS011;49297;43.210;27.914;2023-02-15T16:03:00;21.33;;;16.40;;
63203;SDS011;49297;43.210;27.914;2023-02-15T16:05:26;19.50;;;15.23;;
63203;SDS011;49297;43.210;27.914;2023-02-15T16:07:59;21.55;;;19.02;;
63203;SDS011;49297;43.210;27.914;2023-02-15T16:10:25;30.13;;;24.35;;
63203;SDS011;49297;43.210;27.914;2023-02-15T16:12:53;31.20;;;26.00;;
63203;SDS011;49297;43.210;27.914;2023-02-15T16:15:22;25.33;;;22.70;;
63203;SDS011;49297;43.210;27.914;2023-02-15T16:17:57;21.33;;;17.63;;
63203;SDS011;49297;43.210;27.914;2023-02-15T16:22:53;19.55;;;17.25;;
63203;SDS011;49297;43.210;27.914;2023-02-15T16:25:42;40.15;;;21.98;;
63203;SDS011;49297;43.210;27.914;2023-02-15T16:28:18;29.45;;;22.17;;
63203;SDS011;49297;43.210;27.914;2023-02-15T16:30:45;24.55;;;21.65;;
63203;SDS011;49297;43.210;27.914;2023-02-15T16:33:12;29.70;;;23.45;;
63203;SDS011;49297;43.210;27.914;2023-02-15T16:41:28;24.05;;;19.92;;
63203;SDS011;49297;43.210;27.914;2023-02-15T16:43:56;18.15;;;16.42;;
63203;SDS011;49297;43.210;27.914;2023-02-15T16:46:32;22.37;;;16.30;;
63203;SDS011;49297;43.210;27.914;2023-02-15T16:49:03;17.15;;;15.50;;
63203;SDS011;49297;43.210;27.914;2023-02-15T16:51:56;17.70;;;15.88;;
63203;SDS011;49297;43.210;27.914;2023-02-15T16:54:27;21.25;;;14.70;;
63203;SDS011;49297;43.210;27.914;2023-02-15T16:56:56;22.65;;;13.95;;
63203;SDS011;49297;43.210;27.914;2023-02-15T17:01:57;18.33;;;15.90;;
63203;SDS011;49297;43.210;27.914;2023-02-15T17:04:26;22.33;;;17.95;;
63203;SDS011;49297;43.210;27.914;2023-02-15T17:07:05;23.85;;;16.88;;
63203;SDS011;49297;43.210;27.914;2023-02-15T17:09:50;24.27;;;15.55;;
63203;SDS011;49297;43.210;27.914;2023-02-15T17:12:43;21.15;;;18.27;;
63203;SDS011;49297;43.210;27.914;2023-02-15T17:15:32;21.75;;;17.70;;
63203;SDS011;49297;43.210;27.914;2023-02-15T17:18:01;21.55;;;18.55;;
63203;SDS011;49297;43.210;27.914;2023-02-15T17:20:30;23.05;;;19.35;;
63203;SDS011;49297;43.210;27.914;2023-02-15T17:22:58;27.35;;;19.45;;
63203;SDS011;49297;43.210;27.914;2023-02-15T17:25:26;24.17;;;18.48;;
63203;SDS011;49297;43.210;27.914;2023-02-15T17:28:00;21.30;;;16.60;;
63203;SDS011;49297;43.210;27.914;2023-02-15T17:30:28;25.10;;;19.90;;
63203;SDS011;49297;43.210;27.914;2023-02-15T17:32:58;21.15;;;18.92;;
63203;SDS011;49297;43.210;27.914;2023-02-15T17:35:26;31.98;;;20.80;;
63203;SDS011;49297;43.210;27.914;2023-02-15T17:38:01;26.85;;;21.10;;
63203;SDS011;49297;43.210;27.914;2023-02-15T17:40:53;30.90;;;19.65;;
63203;SDS011;49297;43.210;27.914;2023-02-15T17:43:19;20.92;;;18.55;;
63203;SDS011;49297;43.210;27.914;2023-02-15T17:45:48;26.20;;;20.77;;
63203;SDS011;49297;43.210;27.914;2023-02-15T17:48:20;23.02;;;20.60;;
63203;SDS011;49297;43.210;27.914;2023-02-15T17:51:05;21.73;;;19.15;;
63203;SDS011;49297;43.210;27.914;2023-02-15T17:53:36;27.80;;;21.75;;
63203;SDS011;49297;43.210;27.914;2023-02-15T17:56:02;38.92;;;28.40;;
63203;SDS011;49297;43.210;27.914;2023-02-15T17:58:37;39.10;;;28.50;;
63203;SDS011;49297;43.210;27.914;2023-02-15T18:01:10;32.65;;;27.95;;
63203;SDS011;49297;43.210;27.914;2023-02-15T18:04:00;29.40;;;22.85;;
63203;SDS011;49297;43.210;27.914;2023-02-15T18:06:45;26.77;;;20.00;;
63203;SDS011;49297;43.210;27.914;2023-02-15T18:09:30;25.15;;;16.92;;
63203;SDS011;49297;43.210;27.914;2023-02-15T18:14:47;25.58;;;21.10;;
63203;SDS011;49297;43.210;27.914;2023-02-15T18:17:14;23.77;;;19.40;;
63203;SDS011;49297;43.210;27.914;2023-02-15T18:19:44;22.75;;;17.58;;
63203;SDS011;49297;43.210;27.914;2023-02-15T18:22:12;25.50;;;20.23;;
63203;SDS011;49297;43.210;27.914;2023-02-15T18:24:40;24.60;;;20.30;;
63203;SDS011;49297;43.210;27.914;2023-02-15T18:27:06;27.13;;;18.73;;
63203;SDS011;49297;43.210;27.914;2023-02-15T18:29:32;25.67;;;22.88;;
63203;SDS011;49297;43.210;27.914;2023-02-15T18:31:58;30.83;;;21.42;;
63203;SDS011;49297;43.210;27.914;2023-02-15T18:36:56;25.65;;;22.38;;
63203;SDS011;49297;43.210;27.914;2023-02-15T18:39:38;34.53;;;23.73;;
63203;SDS011;49297;43.210;27.914;2023-02-15T18:42:17;26.95;;;21.65;;